sensor_id;sensor_type;location;lat;lon;timestamp;P1;durP1;ratioP1;P2;durP2;ratioP2
11431;SDS011;5772;50.940;6.782;2022-08-01T00:00:52;42.13;;;40.43;;
11431;SDS011;5772;50.940;6.782;2022-08-01T00:03:18;42.80;;;41.10;;
11431;SDS011;5772;50.940;6.782;2022-08-01T00:05:43;44.07;;;42.27;;
11431;SDS011;5772;50.940;6.782;2022-08-01T00:08:10;43.60;;;41.67;;
11431;SDS011;5772;50.940;6.782;2022-08-01T00:10:35;40.93;;;39.07;;
11431;SDS011;5772;50.940;6.782;2022-08-01T00:13:00;42.47;;;40.57;;
11431;SDS011;5772;50.940;6.782;2022-08-01T00:15:26;41.35;;;39.72;;
11431;SDS011;5772;50.940;6.782;2022-08-01T00:17:51;40.30;;;38.70;;
11431;SDS011;5772;50.940;6.782;2022-08-01T00:20:16;40.80;;;39.20;;
11431;SDS011;5772;50.940;6.782;2022-08-01T00:22:42;41.87;;;40.13;;
11431;SDS011;5772;50.940;6.782;2022-08-01T00:25:09;40.00;;;38.40;;
11431;SDS011;5772;50.940;6.782;2022-08-01T00:27:34;39.30;;;37.70;;
11431;SDS011;5772;50.940;6.782;2022-08-01T00:30:00;40.03;;;38.43;;
11431;SDS011;5772;50.940;6.782;2022-08-01T00:32:25;38.53;;;36.93;;
11431;SDS011;5772;50.940;6.782;2022-08-01T00:34:50;35.80;;;34.40;;
11431;SDS011;5772;50.940;6.782;2022-08-01T00:37:16;33.07;;;31.77;;
11431;SDS011;5772;50.940;6.782;2022-08-01T00:39:41;32.40;;;31.10;;
11431;SDS011;5772;50.940;6.782;2022-08-01T00:42:09;34.93;;;33.53;;
11431;SDS011;5772;50.940;6.782;2022-08-01T00:44:37;40.13;;;38.50;;
11431;SDS011;5772;50.940;6.782;2022-08-01T00:47:03;50.40;;;48.40;;
11431;SDS011;5772;50.940;6.782;2022-08-01T00:49:29;54.53;;;52.07;;
11431;SDS011;5772;50.940;6.782;2022-08-01T00:51:55;57.17;;;54.83;;
11431;SDS011;5772;50.940;6.782;2022-08-01T00:54:20;59.03;;;56.60;;
11431;SDS011;5772;50.940;6.782;2022-08-01T00:56:46;54.27;;;52.10;;
11431;SDS011;5772;50.940;6.782;2022-08-01T00:59:12;53.07;;;50.90;;
11431;SDS011;5772;50.940;6.782;2022-08-01T01:01:39;53.30;;;51.13;;
11431;SDS011;5772;50.940;6.782;2022-08-01T01:04:04;44.53;;;42.73;;
11431;SDS011;5772;50.940;6.782;2022-08-01T01:06:32;38.77;;;37.03;;
11431;SDS011;5772;50.940;6.782;2022-08-01T01:09:09;37.00;;;35.50;;
11431;SDS011;5772;50.940;6.782;2022-08-01T01:11:42;34.10;;;32.70;;
11431;SDS011;5772;50.940;6.782;2022-08-01T01:14:10;29.60;;;28.40;;
11431;SDS011;5772;50.940;6.782;2022-08-01T01:16:41;28.67;;;27.50;;
11431;SDS011;5772;50.940;6.782;2022-08-01T01:19:08;29.53;;;28.23;;
11431;SDS011;5772;50.940;6.782;2022-08-01T01:21:49;31.90;;;30.33;;
11431;SDS011;5772;50.940;6.782;2022-08-01T01:24:28;37.90;;;36.37;;
11431;SDS011;5772;50.940;6.782;2022-08-01T01:27:00;40.33;;;38.67;;
11431;SDS011;5772;50.940;6.782;2022-08-01T01:29:32;41.40;;;39.67;;
11431;SDS011;5772;50.940;6.782;2022-08-01T01:32:02;51.83;;;49.60;;
11431;SDS011;5772;50.940;6.782;2022-08-01T01:34:30;57.53;;;55.20;;
11431;SDS011;5772;50.940;6.782;2022-08-01T01:36:57;54.97;;;52.70;;
11431;SDS011;5772;50.940;6.782;2022-08-01T01:39:23;57.20;;;54.87;;
11431;SDS011;5772;50.940;6.782;2022-08-01T01:41:49;56.13;;;53.33;;
11431;SDS011;5772;50.940;6.782;2022-08-01T01:44:16;55.80;;;53.50;;
11431;SDS011;5772;50.940;6.782;2022-08-01T01:46:43;57.43;;;54.90;;
11431;SDS011;5772;50.940;6.782;2022-08-01T01:49:10;55.50;;;53.20;;
11431;SDS011;5772;50.940;6.782;2022-08-01T01:51:36;55.27;;;52.93;;
11431;SDS011;5772;50.940;6.782;2022-08-01T01:54:02;53.33;;;51.17;;
11431;SDS011;5772;50.940;6.782;2022-08-01T01:56:29;53.87;;;51.53;;
11431;SDS011;5772;50.940;6.782;2022-08-01T01:58:56;54.60;;;52.27;;
11431;SDS011;5772;50.940;6.782;2022-08-01T02:01:24;48.17;;;46.20;;
11431;SDS011;5772;50.940;6.782;2022-08-01T02:03:53;49.87;;;47.57;;
11431;SDS011;5772;50.940;6.782;2022-08-01T02:06:20;51.97;;;49.83;;
11431;SDS011;5772;50.940;6.782;2022-08-01T02:08:47;50.83;;;48.77;;
11431;SDS011;5772;50.940;6.782;2022-08-01T02:11:13;50.77;;;48.67;;
11431;SDS011;5772;50.940;6.782;2022-08-01T02:13:38;50.17;;;48.07;;
11431;SDS011;5772;50.940;6.782;2022-08-01T02:16:05;46.10;;;44.10;;
11431;SDS011;5772;50.940;6.782;2022-08-01T02:18:30;42.43;;;40.70;;
11431;SDS011;5772;50.940;6.782;2022-08-01T02:20:58;44.03;;;42.20;;
11431;SDS011;5772;50.940;6.782;2022-08-01T02:23:24;47.03;;;44.80;;
11431;SDS011;5772;50.940;6.782;2022-08-01T02:25:52;43.73;;;41.97;;
11431;SDS011;5772;50.940;6.782;2022-08-01T02:28:20;44.47;;;42.60;;
11431;SDS011;5772;50.940;6.782;2022-08-01T02:30:47;47.93;;;45.80;;
11431;SDS011;5772;50.940;6.782;2022-08-01T02:33:15;44.00;;;42.17;;
11431;SDS011;5772;50.940;6.782;2022-08-01T02:35:43;46.57;;;44.53;;
11431;SDS011;5772;50.940;6.782;2022-08-01T02:38:12;47.53;;;45.50;;
11431;SDS011;5772;50.940;6.782;2022-08-01T02:40:40;50.83;;;48.67;;
11431;SDS011;5772;50.940;6.782;2022-08-01T02:43:07;51.27;;;49.07;;
11431;SDS011;5772;50.940;6.782;2022-08-01T02:45:35;55.13;;;52.90;;
11431;SDS011;5772;50.940;6.782;2022-08-01T02:48:05;56.03;;;53.70;;
11431;SDS011;5772;50.940;6.782;2022-08-01T02:50:33;53.60;;;51.37;;
11431;SDS011;5772;50.940;6.782;2022-08-01T02:52:59;51.03;;;48.90;;
11431;SDS011;5772;50.940;6.782;2022-08-01T02:55:27;58.10;;;55.67;;
11431;SDS011;5772;50.940;6.782;2022-08-01T02:57:54;58.37;;;56.00;;
11431;SDS011;5772;50.940;6.782;2022-08-01T03:00:20;62.43;;;59.90;;
11431;SDS011;5772;50.940;6.782;2022-08-01T03:02:45;61.50;;;58.90;;
11431;SDS011;5772;50.940;6.782;2022-08-01T03:05:11;59.23;;;56.77;;
11431;SDS011;5772;50.940;6.782;2022-08-01T03:07:37;59.17;;;56.77;;
11431;SDS011;5772;50.940;6.782;2022-08-01T03:10:04;59.07;;;56.60;;
11431;SDS011;5772;50.940;6.782;2022-08-01T03:12:33;59.60;;;57.17;;
11431;SDS011;5772;50.940;6.782;2022-08-01T03:14:59;58.83;;;56.40;;
11431;SDS011;5772;50.940;6.782;2022-08-01T03:17:25;58.07;;;55.67;;
11431;SDS011;5772;50.940;6.782;2022-08-01T03:19:51;57.03;;;54.67;;
11431;SDS011;5772;50.940;6.782;2022-08-01T03:22:17;61.37;;;58.80;;
11431;SDS011;5772;50.940;6.782;2022-08-01T03:24:44;58.53;;;56.17;;
11431;SDS011;5772;50.940;6.782;2022-08-01T03:27:13;58.53;;;55.90;;
11431;SDS011;5772;50.940;6.782;2022-08-01T03:29:40;60.47;;;57.97;;
11431;SDS011;5772;50.940;6.782;2022-08-01T03:32:06;61.63;;;58.90;;
11431;SDS011;5772;50.940;6.782;2022-08-01T03:34:33;58.23;;;55.70;;
11431;SDS011;5772;50.940;6.782;2022-08-01T03:36:59;63.03;;;60.10;;
11431;SDS011;5772;50.940;6.782;2022-08-01T03:39:28;62.03;;;59.37;;
11431;SDS011;5772;50.940;6.782;2022-08-01T03:41:56;63.47;;;60.50;;
11431;SDS011;5772;50.940;6.782;2022-08-01T03:44:24;62.50;;;59.80;;
11431;SDS011;5772;50.940;6.782;2022-08-01T03:46:53;59.93;;;57.30;;
11431;SDS011;5772;50.940;6.782;2022-08-01T03:49:22;61.70;;;59.00;;
11431;SDS011;5772;50.940;6.782;2022-08-01T03:51:49;60.07;;;57.47;;
11431;SDS011;5772;50.940;6.782;2022-08-01T03:54:15;60.03;;;57.43;;
11431;SDS011;5772;50.940;6.782;2022-08-01T03:56:42;59.30;;;56.70;;
11431;SDS011;5772;50.940;6.782;2022-08-01T03:59:08;60.47;;;57.87;;
11431;SDS011;5772;50.940;6.782;2022-08-01T04:01:34;56.53;;;54.13;;
11431;SDS011;5772;50.940;6.782;2022-08-01T04:04:00;57.20;;;54.70;;
11431;SDS011;5772;50.940;6.782;2022-08-01T04:06:26;56.43;;;53.83;;
11431;SDS011;5772;50.940;6.782;2022-08-01T04:08:51;59.60;;;57.00;;
11431;SDS011;5772;50.940;6.782;2022-08-01T04:11:17;59.83;;;57.30;;
11431;SDS011;5772;50.940;6.782;2022-08-01T04:13:42;62.00;;;59.30;;
11431;SDS011;5772;50.940;6.782;2022-08-01T04:16:08;60.93;;;58.23;;
11431;SDS011;5772;50.940;6.782;2022-08-01T04:18:33;61.07;;;58.27;;
11431;SDS011;5772;50.940;6.782;2022-08-01T04:21:00;62.03;;;58.90;;
11431;SDS011;5772;50.940;6.782;2022-08-01T04:23:25;60.40;;;57.90;;
11431;SDS011;5772;50.940;6.782;2022-08-01T04:25:51;58.90;;;56.40;;
11431;SDS011;5772;50.940;6.782;2022-08-01T04:28:17;61.73;;;59.00;;
11431;SDS011;5772;50.940;6.782;2022-08-01T04:30:44;62.43;;;59.50;;
11431;SDS011;5772;50.940;6.782;2022-08-01T04:33:11;62.43;;;59.73;;
11431;SDS011;5772;50.940;6.782;2022-08-01T04:35:39;67.17;;;64.07;;
11431;SDS011;5772;50.940;6.782;2022-08-01T04:38:06;63.97;;;61.13;;
11431;SDS011;5772;50.940;6.782;2022-08-01T04:40:33;65.80;;;62.97;;
11431;SDS011;5772;50.940;6.782;2022-08-01T04:42:59;65.67;;;62.83;;
11431;SDS011;5772;50.940;6.782;2022-08-01T04:45:25;65.23;;;62.43;;
11431;SDS011;5772;50.940;6.782;2022-08-01T04:47:51;67.00;;;64.13;;
11431;SDS011;5772;50.940;6.782;2022-08-01T04:50:16;64.33;;;61.57;;
11431;SDS011;5772;50.940;6.782;2022-08-01T04:52:42;64.43;;;61.63;;
11431;SDS011;5772;50.940;6.782;2022-08-01T04:55:09;60.57;;;57.90;;
11431;SDS011;5772;50.940;6.782;2022-08-01T04:57:34;61.70;;;59.07;;
11431;SDS011;5772;50.940;6.782;2022-08-01T05:00:03;65.70;;;62.90;;
11431;SDS011;5772;50.940;6.782;2022-08-01T05:02:29;60.93;;;58.17;;
11431;SDS011;5772;50.940;6.782;2022-08-01T05:04:54;64.80;;;61.73;;
11431;SDS011;5772;50.940;6.782;2022-08-01T05:07:20;63.43;;;60.50;;
11431;SDS011;5772;50.940;6.782;2022-08-01T05:09:46;63.93;;;60.90;;
11431;SDS011;5772;50.940;6.782;2022-08-01T05:12:12;63.47;;;60.57;;
11431;SDS011;5772;50.940;6.782;2022-08-01T05:14:38;67.23;;;64.40;;
11431;SDS011;5772;50.940;6.782;2022-08-01T05:17:04;66.80;;;63.57;;
11431;SDS011;5772;50.940;6.782;2022-08-01T05:19:31;69.70;;;66.67;;
11431;SDS011;5772;50.940;6.782;2022-08-01T05:21:57;69.13;;;66.00;;
11431;SDS011;5772;50.940;6.782;2022-08-01T05:24:22;68.17;;;65.23;;
11431;SDS011;5772;50.940;6.782;2022-08-01T05:26:48;67.80;;;64.77;;
11431;SDS011;5772;50.940;6.782;2022-08-01T05:29:15;71.60;;;68.33;;
11431;SDS011;5772;50.940;6.782;2022-08-01T05:31:40;69.60;;;66.33;;
11431;SDS011;5772;50.940;6.782;2022-08-01T05:34:05;72.07;;;68.47;;
11431;SDS011;5772;50.940;6.782;2022-08-01T05:36:31;71.87;;;68.37;;
11431;SDS011;5772;50.940;6.782;2022-08-01T05:38:56;74.20;;;70.60;;
11431;SDS011;5772;50.940;6.782;2022-08-01T05:41:22;74.20;;;70.70;;
11431;SDS011;5772;50.940;6.782;2022-08-01T05:43:47;73.23;;;69.70;;
11431;SDS011;5772;50.940;6.782;2022-08-01T05:46:14;68.43;;;65.37;;
11431;SDS011;5772;50.940;6.782;2022-08-01T05:48:39;72.90;;;69.53;;
11431;SDS011;5772;50.940;6.782;2022-08-01T05:51:04;72.23;;;68.80;;
11431;SDS011;5772;50.940;6.782;2022-08-01T05:53:30;68.73;;;65.53;;
11431;SDS011;5772;50.940;6.782;2022-08-01T05:55:55;76.83;;;73.43;;
11431;SDS011;5772;50.940;6.782;2022-08-01T05:58:21;76.40;;;72.90;;
11431;SDS011;5772;50.940;6.782;2022-08-01T06:00:46;86.37;;;82.23;;
11431;SDS011;5772;50.940;6.782;2022-08-01T06:03:13;85.13;;;81.27;;
11431;SDS011;5772;50.940;6.782;2022-08-01T06:05:38;85.73;;;82.17;;
11431;SDS011;5772;50.940;6.782;2022-08-01T06:08:04;92.00;;;87.93;;
11431;SDS011;5772;50.940;6.782;2022-08-01T06:10:29;78.20;;;74.70;;
11431;SDS011;5772;50.940;6.782;2022-08-01T06:12:54;73.67;;;70.40;;
11431;SDS011;5772;50.940;6.782;2022-08-01T06:15:20;60.40;;;57.53;;
11431;SDS011;5772;50.940;6.782;2022-08-01T06:17:45;51.80;;;49.40;;
11431;SDS011;5772;50.940;6.782;2022-08-01T06:20:12;48.23;;;45.70;;
11431;SDS011;5772;50.940;6.782;2022-08-01T06:22:37;48.87;;;46.50;;
11431;SDS011;5772;50.940;6.782;2022-08-01T06:25:03;27.13;;;25.83;;
11431;SDS011;5772;50.940;6.782;2022-08-01T06:27:30;26.27;;;24.77;;
11431;SDS011;5772;50.940;6.782;2022-08-01T06:29:55;23.40;;;22.07;;
11431;SDS011;5772;50.940;6.782;2022-08-01T06:32:20;31.00;;;29.40;;
11431;SDS011;5772;50.940;6.782;2022-08-01T06:34:46;30.77;;;29.25;;
11431;SDS011;5772;50.940;6.782;2022-08-01T06:37:13;34.77;;;32.97;;
11431;SDS011;5772;50.940;6.782;2022-08-01T06:39:38;33.50;;;31.70;;
11431;SDS011;5772;50.940;6.782;2022-08-01T06:42:04;33.37;;;31.77;;
11431;SDS011;5772;50.940;6.782;2022-08-01T06:44:29;27.85;;;26.25;;
11431;SDS011;5772;50.940;6.782;2022-08-01T06:46:54;30.83;;;29.13;;
11431;SDS011;5772;50.940;6.782;2022-08-01T06:49:20;26.80;;;25.40;;
11431;SDS011;5772;50.940;6.782;2022-08-01T06:51:45;25.80;;;24.20;;
11431;SDS011;5772;50.940;6.782;2022-08-01T06:54:12;26.48;;;25.08;;
11431;SDS011;5772;50.940;6.782;2022-08-01T06:56:37;27.52;;;26.13;;
11431;SDS011;5772;50.940;6.782;2022-08-01T06:59:03;29.17;;;27.58;;
11431;SDS011;5772;50.940;6.782;2022-08-01T07:01:29;28.92;;;27.25;;
11431;SDS011;5772;50.940;6.782;2022-08-01T07:03:54;27.20;;;25.80;;
11431;SDS011;5772;50.940;6.782;2022-08-01T07:06:20;33.97;;;32.25;;
11431;SDS011;5772;50.940;6.782;2022-08-01T07:08:46;35.33;;;33.55;;
11431;SDS011;5772;50.940;6.782;2022-08-01T07:11:12;38.55;;;36.33;;
11431;SDS011;5772;50.940;6.782;2022-08-01T07:13:38;44.13;;;41.65;;
11431;SDS011;5772;50.940;6.782;2022-08-01T07:16:03;47.70;;;45.25;;
11431;SDS011;5772;50.940;6.782;2022-08-01T07:18:29;48.42;;;46.00;;
11431;SDS011;5772;50.940;6.782;2022-08-01T07:20:54;50.92;;;48.53;;
11431;SDS011;5772;50.940;6.782;2022-08-01T07:23:20;44.50;;;42.28;;
11431;SDS011;5772;50.940;6.782;2022-08-01T07:25:45;48.00;;;45.80;;
11431;SDS011;5772;50.940;6.782;2022-08-01T07:28:12;48.95;;;46.63;;
11431;SDS011;5772;50.940;6.782;2022-08-01T07:30:37;48.55;;;46.15;;
11431;SDS011;5772;50.940;6.782;2022-08-01T07:33:03;47.67;;;45.53;;
11431;SDS011;5772;50.940;6.782;2022-08-01T07:35:28;48.17;;;45.78;;
11431;SDS011;5772;50.940;6.782;2022-08-01T07:37:53;47.00;;;44.92;;
11431;SDS011;5772;50.940;6.782;2022-08-01T07:40:19;42.33;;;40.42;;
11431;SDS011;5772;50.940;6.782;2022-08-01T07:42:45;39.03;;;37.25;;
11431;SDS011;5772;50.940;6.782;2022-08-01T07:45:11;43.65;;;41.60;;
11431;SDS011;5772;50.940;6.782;2022-08-01T07:47:37;46.83;;;44.47;;
11431;SDS011;5772;50.940;6.782;2022-08-01T07:50:03;43.10;;;41.10;;
11431;SDS011;5772;50.940;6.782;2022-08-01T07:52:30;41.78;;;39.70;;
11431;SDS011;5772;50.940;6.782;2022-08-01T07:54:55;42.90;;;40.95;;
11431;SDS011;5772;50.940;6.782;2022-08-01T07:57:20;45.67;;;43.53;;
11431;SDS011;5772;50.940;6.782;2022-08-01T07:59:46;42.42;;;40.33;;
11431;SDS011;5772;50.940;6.782;2022-08-01T08:02:13;40.00;;;38.00;;
11431;SDS011;5772;50.940;6.782;2022-08-01T08:04:38;39.30;;;37.30;;
11431;SDS011;5772;50.940;6.782;2022-08-01T08:07:03;29.88;;;28.48;;
11431;SDS011;5772;50.940;6.782;2022-08-01T08:09:29;23.30;;;21.83;;
11431;SDS011;5772;50.940;6.782;2022-08-01T08:11:54;23.20;;;22.13;;
11431;SDS011;5772;50.940;6.782;2022-08-01T08:14:19;26.00;;;24.70;;
11431;SDS011;5772;50.940;6.782;2022-08-01T08:16:45;26.13;;;24.92;;
11431;SDS011;5772;50.940;6.782;2022-08-01T08:19:12;27.95;;;26.75;;
11431;SDS011;5772;50.940;6.782;2022-08-01T08:21:37;29.15;;;27.85;;
11431;SDS011;5772;50.940;6.782;2022-08-01T08:24:02;24.80;;;23.77;;
11431;SDS011;5772;50.940;6.782;2022-08-01T08:26:28;25.10;;;23.98;;
11431;SDS011;5772;50.940;6.782;2022-08-01T08:28:53;26.85;;;25.27;;
11431;SDS011;5772;50.940;6.782;2022-08-01T08:31:19;28.08;;;26.55;;
11431;SDS011;5772;50.940;6.782;2022-08-01T08:33:44;26.45;;;25.17;;
11431;SDS011;5772;50.940;6.782;2022-08-01T08:36:11;26.45;;;25.10;;
11431;SDS011;5772;50.940;6.782;2022-08-01T08:38:38;24.02;;;22.92;;
11431;SDS011;5772;50.940;6.782;2022-08-01T08:41:03;23.75;;;22.65;;
11431;SDS011;5772;50.940;6.782;2022-08-01T08:43:29;22.70;;;21.60;;
11431;SDS011;5772;50.940;6.782;2022-08-01T08:45:55;23.05;;;21.80;;
11431;SDS011;5772;50.940;6.782;2022-08-01T08:48:21;23.63;;;22.52;;
11431;SDS011;5772;50.940;6.782;2022-08-01T08:50:46;24.42;;;23.33;;
11431;SDS011;5772;50.940;6.782;2022-08-01T08:53:14;23.95;;;22.85;;
11431;SDS011;5772;50.940;6.782;2022-08-01T08:55:40;22.85;;;21.75;;
11431;SDS011;5772;50.940;6.782;2022-08-01T08:58:06;24.13;;;22.92;;
11431;SDS011;5772;50.940;6.782;2022-08-01T09:00:31;24.23;;;23.13;;
11431;SDS011;5772;50.940;6.782;2022-08-01T09:02:56;21.65;;;20.65;;
11431;SDS011;5772;50.940;6.782;2022-08-01T09:05:22;22.45;;;21.35;;
11431;SDS011;5772;50.940;6.782;2022-08-01T09:07:48;25.30;;;23.95;;
11431;SDS011;5772;50.940;6.782;2022-08-01T09:10:14;24.30;;;23.08;;
11431;SDS011;5772;50.940;6.782;2022-08-01T09:12:40;25.10;;;23.90;;
11431;SDS011;5772;50.940;6.782;2022-08-01T09:15:42;23.88;;;22.77;;
11431;SDS011;5772;50.940;6.782;2022-08-01T09:18:23;22.48;;;21.40;;
11431;SDS011;5772;50.940;6.782;2022-08-01T09:20:50;22.20;;;21.10;;
11431;SDS011;5772;50.940;6.782;2022-08-01T09:23:30;18.80;;;17.90;;
11431;SDS011;5772;50.940;6.782;2022-08-01T09:25:57;20.58;;;19.63;;
11431;SDS011;5772;50.940;6.782;2022-08-01T09:28:26;19.23;;;18.33;;
11431;SDS011;5772;50.940;6.782;2022-08-01T09:30:52;18.42;;;17.42;;
11431;SDS011;5772;50.940;6.782;2022-08-01T09:33:17;17.17;;;16.27;;
11431;SDS011;5772;50.940;6.782;2022-08-01T09:35:43;15.20;;;14.40;;
11431;SDS011;5772;50.940;6.782;2022-08-01T09:38:12;14.23;;;13.48;;
11431;SDS011;5772;50.940;6.782;2022-08-01T09:40:45;14.23;;;13.13;;
11431;SDS011;5772;50.940;6.782;2022-08-01T09:43:19;15.00;;;14.10;;
11431;SDS011;5772;50.940;6.782;2022-08-01T09:45:45;14.55;;;13.75;;
11431;SDS011;5772;50.940;6.782;2022-08-01T09:48:11;13.95;;;13.25;;
11431;SDS011;5772;50.940;6.782;2022-08-01T09:50:39;13.18;;;12.38;;
11431;SDS011;5772;50.940;6.782;2022-08-01T09:53:05;13.90;;;13.10;;
11431;SDS011;5772;50.940;6.782;2022-08-01T09:55:30;15.10;;;13.98;;
11431;SDS011;5772;50.940;6.782;2022-08-01T09:57:56;14.13;;;13.25;;
11431;SDS011;5772;50.940;6.782;2022-08-01T10:00:23;13.77;;;13.07;;
11431;SDS011;5772;50.940;6.782;2022-08-01T10:02:48;15.00;;;14.27;;
11431;SDS011;5772;50.940;6.782;2022-08-01T10:05:14;14.70;;;14.00;;
11431;SDS011;5772;50.940;6.782;2022-08-01T10:07:54;14.18;;;13.48;;
11431;SDS011;5772;50.940;6.782;2022-08-01T10:10:20;14.80;;;14.02;;
11431;SDS011;5772;50.940;6.782;2022-08-01T10:12:46;14.32;;;13.52;;
11431;SDS011;5772;50.940;6.782;2022-08-01T10:15:13;16.70;;;15.63;;
11431;SDS011;5772;50.940;6.782;2022-08-01T10:17:41;15.45;;;14.75;;
11431;SDS011;5772;50.940;6.782;2022-08-01T10:20:12;16.38;;;15.48;;
11431;SDS011;5772;50.940;6.782;2022-08-01T10:22:38;20.02;;;19.08;;
11431;SDS011;5772;50.940;6.782;2022-08-01T10:25:04;17.85;;;16.98;;
11431;SDS011;5772;50.940;6.782;2022-08-01T10:27:31;18.65;;;17.75;;
11431;SDS011;5772;50.940;6.782;2022-08-01T10:29:58;22.33;;;21.23;;
11431;SDS011;5772;50.940;6.782;2022-08-01T10:32:24;23.65;;;22.55;;
11431;SDS011;5772;50.940;6.782;2022-08-01T10:34:51;21.40;;;20.42;;
11431;SDS011;5772;50.940;6.782;2022-08-01T10:37:17;22.45;;;21.35;;
11431;SDS011;5772;50.940;6.782;2022-08-01T10:39:43;20.83;;;19.73;;
11431;SDS011;5772;50.940;6.782;2022-08-01T10:42:09;17.85;;;17.05;;
11431;SDS011;5772;50.940;6.782;2022-08-01T10:44:36;19.60;;;18.70;;
11431;SDS011;5772;50.940;6.782;2022-08-01T10:47:04;20.10;;;19.00;;
11431;SDS011;5772;50.940;6.782;2022-08-01T10:49:34;19.88;;;18.98;;
11431;SDS011;5772;50.940;6.782;2022-08-01T10:52:05;18.15;;;17.25;;
11431;SDS011;5772;50.940;6.782;2022-08-01T10:54:32;16.38;;;15.57;;
11431;SDS011;5772;50.940;6.782;2022-08-01T10:57:03;15.80;;;15.10;;
11431;SDS011;5772;50.940;6.782;2022-08-01T10:59:29;15.60;;;14.90;;
11431;SDS011;5772;50.940;6.782;2022-08-01T11:01:57;14.75;;;14.05;;
11431;SDS011;5772;50.940;6.782;2022-08-01T11:04:31;14.63;;;13.93;;
11431;SDS011;5772;50.940;6.782;2022-08-01T11:07:03;14.63;;;13.82;;
11431;SDS011;5772;50.940;6.782;2022-08-01T11:09:31;13.00;;;12.38;;
11431;SDS011;5772;50.940;6.782;2022-08-01T11:12:05;13.27;;;12.57;;
11431;SDS011;5772;50.940;6.782;2022-08-01T11:14:32;13.38;;;12.75;;
11431;SDS011;5772;50.940;6.782;2022-08-01T11:20:03;12.05;;;11.55;;
11431;SDS011;5772;50.940;6.782;2022-08-01T11:22:31;12.90;;;12.32;;
11431;SDS011;5772;50.940;6.782;2022-08-01T11:24:56;11.90;;;11.30;;
11431;SDS011;5772;50.940;6.782;2022-08-01T11:27:22;14.63;;;13.93;;
11431;SDS011;5772;50.940;6.782;2022-08-01T11:32:48;15.32;;;14.63;;
11431;SDS011;5772;50.940;6.782;2022-08-01T11:35:14;15.70;;;14.90;;
11431;SDS011;5772;50.940;6.782;2022-08-01T11:37:42;14.95;;;14.30;;
11431;SDS011;5772;50.940;6.782;2022-08-01T11:40:14;13.95;;;13.35;;
11431;SDS011;5772;50.940;6.782;2022-08-01T11:42:40;13.65;;;13.05;;
11431;SDS011;5772;50.940;6.782;2022-08-01T11:45:05;13.13;;;12.52;;
11431;SDS011;5772;50.940;6.782;2022-08-01T11:53:06;13.50;;;12.80;;
11431;SDS011;5772;50.940;6.782;2022-08-01T11:55:32;14.48;;;13.88;;
11431;SDS011;5772;50.940;6.782;2022-08-01T11:58:02;14.35;;;13.65;;
11431;SDS011;5772;50.940;6.782;2022-08-01T12:00:28;14.40;;;13.60;;
11431;SDS011;5772;50.940;6.782;2022-08-01T12:02:57;13.20;;;12.70;;
11431;SDS011;5772;50.940;6.782;2022-08-01T12:05:23;13.43;;;12.82;;
11431;SDS011;5772;50.940;6.782;2022-08-01T12:07:49;11.35;;;10.85;;
11431;SDS011;5772;50.940;6.782;2022-08-01T12:10:17;11.15;;;10.55;;
11431;SDS011;5772;50.940;6.782;2022-08-01T12:12:44;11.52;;;11.02;;
11431;SDS011;5772;50.940;6.782;2022-08-01T12:15:11;12.38;;;11.85;;
11431;SDS011;5772;50.940;6.782;2022-08-01T12:17:37;12.25;;;11.65;;
11431;SDS011;5772;50.940;6.782;2022-08-01T12:20:05;13.82;;;13.15;;
11431;SDS011;5772;50.940;6.782;2022-08-01T12:22:31;13.38;;;12.68;;
11431;SDS011;5772;50.940;6.782;2022-08-01T12:25:04;13.27;;;12.68;;
11431;SDS011;5772;50.940;6.782;2022-08-01T12:27:31;13.50;;;12.73;;
11431;SDS011;5772;50.940;6.782;2022-08-01T12:29:57;13.30;;;12.60;;
11431;SDS011;5772;50.940;6.782;2022-08-01T12:32:25;14.30;;;13.25;;
11431;SDS011;5772;50.940;6.782;2022-08-01T12:34:52;14.70;;;13.85;;
11431;SDS011;5772;50.940;6.782;2022-08-01T12:37:18;15.15;;;14.13;;
11431;SDS011;5772;50.940;6.782;2022-08-01T12:39:44;15.93;;;15.13;;
11431;SDS011;5772;50.940;6.782;2022-08-01T12:42:10;13.20;;;12.50;;
11431;SDS011;5772;50.940;6.782;2022-08-01T12:44:37;14.43;;;13.63;;
11431;SDS011;5772;50.940;6.782;2022-08-01T12:47:04;15.50;;;14.80;;
11431;SDS011;5772;50.940;6.782;2022-08-01T12:49:30;15.05;;;14.27;;
11431;SDS011;5772;50.940;6.782;2022-08-01T12:51:56;13.23;;;12.63;;
11431;SDS011;5772;50.940;6.782;2022-08-01T12:54:22;14.35;;;13.65;;
11431;SDS011;5772;50.940;6.782;2022-08-01T12:56:47;13.25;;;12.63;;
11431;SDS011;5772;50.940;6.782;2022-08-01T12:59:19;13.57;;;12.98;;
11431;SDS011;5772;50.940;6.782;2022-08-01T13:01:46;13.73;;;12.93;;
11431;SDS011;5772;50.940;6.782;2022-08-01T13:04:11;12.30;;;11.70;;
11431;SDS011;5772;50.940;6.782;2022-08-01T13:06:37;13.95;;;13.18;;
11431;SDS011;5772;50.940;6.782;2022-08-01T13:09:05;12.75;;;12.15;;
11431;SDS011;5772;50.940;6.782;2022-08-01T13:11:31;12.25;;;11.55;;
11431;SDS011;5772;50.940;6.782;2022-08-01T13:13:56;13.43;;;12.82;;
11431;SDS011;5772;50.940;6.782;2022-08-01T13:16:22;13.52;;;12.93;;
11431;SDS011;5772;50.940;6.782;2022-08-01T13:18:51;13.43;;;12.82;;
11431;SDS011;5772;50.940;6.782;2022-08-01T13:21:17;14.40;;;13.75;;
11431;SDS011;5772;50.940;6.782;2022-08-01T13:26:37;14.35;;;13.68;;
11431;SDS011;5772;50.940;6.782;2022-08-01T13:29:04;13.60;;;12.90;;
11431;SDS011;5772;50.940;6.782;2022-08-01T13:31:31;13.48;;;12.77;;
11431;SDS011;5772;50.940;6.782;2022-08-01T13:33:58;13.20;;;12.55;;
11431;SDS011;5772;50.940;6.782;2022-08-01T13:36:24;14.13;;;13.52;;
11431;SDS011;5772;50.940;6.782;2022-08-01T13:38:49;13.70;;;13.10;;
11431;SDS011;5772;50.940;6.782;2022-08-01T13:41:14;13.90;;;13.20;;
11431;SDS011;5772;50.940;6.782;2022-08-01T13:43:40;14.30;;;13.70;;
11431;SDS011;5772;50.940;6.782;2022-08-01T13:46:05;14.77;;;13.95;;
11431;SDS011;5772;50.940;6.782;2022-08-01T13:48:31;14.15;;;13.35;;
11431;SDS011;5772;50.940;6.782;2022-08-01T13:50:58;13.55;;;12.95;;
11431;SDS011;5772;50.940;6.782;2022-08-01T13:53:24;13.85;;;13.23;;
11431;SDS011;5772;50.940;6.782;2022-08-01T13:55:50;15.98;;;15.18;;
11431;SDS011;5772;50.940;6.782;2022-08-01T13:58:15;15.32;;;14.63;;
11431;SDS011;5772;50.940;6.782;2022-08-01T14:00:40;15.60;;;14.80;;
11431;SDS011;5772;50.940;6.782;2022-08-01T14:03:06;13.88;;;13.27;;
11431;SDS011;5772;50.940;6.782;2022-08-01T14:05:31;14.20;;;13.63;;
11431;SDS011;5772;50.940;6.782;2022-08-01T14:07:58;13.13;;;12.30;;
11431;SDS011;5772;50.940;6.782;2022-08-01T14:10:24;13.70;;;13.10;;
11431;SDS011;5772;50.940;6.782;2022-08-01T14:12:49;14.88;;;14.07;;
11431;SDS011;5772;50.940;6.782;2022-08-01T14:15:15;13.68;;;13.07;;
11431;SDS011;5772;50.940;6.782;2022-08-01T14:17:40;13.60;;;13.00;;
11431;SDS011;5772;50.940;6.782;2022-08-01T14:20:06;14.45;;;13.85;;
11431;SDS011;5772;50.940;6.782;2022-08-01T14:22:32;13.43;;;12.82;;
11431;SDS011;5772;50.940;6.782;2022-08-01T14:24:59;15.73;;;15.02;;
11431;SDS011;5772;50.940;6.782;2022-08-01T14:27:24;14.25;;;13.65;;
11431;SDS011;5772;50.940;6.782;2022-08-01T14:29:50;14.38;;;13.77;;
11431;SDS011;5772;50.940;6.782;2022-08-01T14:32:15;15.10;;;14.50;;
11431;SDS011;5772;50.940;6.782;2022-08-01T14:34:40;16.10;;;15.40;;
11431;SDS011;5772;50.940;6.782;2022-08-01T14:37:06;15.57;;;14.73;;
11431;SDS011;5772;50.940;6.782;2022-08-01T14:39:31;16.75;;;16.05;;
11431;SDS011;5772;50.940;6.782;2022-08-01T14:41:58;16.20;;;15.35;;
11431;SDS011;5772;50.940;6.782;2022-08-01T14:44:23;16.67;;;15.93;;